sensor_id;sensor_type;location;lat;lon;timestamp;P1;durP1;ratioP1;P2;durP2;ratioP2
25437;SDS011;13364;49.084;9.978;2023-07-08T00:00:53;9.68;;;6.20;;
25437;SDS011;13364;49.084;9.978;2023-07-08T00:03:21;8.85;;;5.15;;
25437;SDS011;13364;49.084;9.978;2023-07-08T00:05:49;9.07;;;5.82;;
25437;SDS011;13364;49.084;9.978;2023-07-08T00:08:20;11.98;;;5.95;;
25437;SDS011;13364;49.084;9.978;2023-07-08T00:10:47;10.27;;;6.05;;
25437;SDS011;13364;49.084;9.978;2023-07-08T00:13:14;11.35;;;6.40;;
25437;SDS011;13364;49.084;9.978;2023-07-08T00:15:41;13.73;;;6.05;;
25437;SDS011;13364;49.084;9.978;2023-07-08T00:18:12;8.02;;;5.35;;
25437;SDS011;13364;49.084;9.978;2023-07-08T00:20:48;9.45;;;6.03;;
25437;SDS011;13364;49.084;9.978;2023-07-08T00:23:16;7.60;;;5.97;;
25437;SDS011;13364;49.084;9.978;2023-07-08T00:25:48;8.57;;;5.15;;
25437;SDS011;13364;49.084;9.978;2023-07-08T00:28:16;9.93;;;5.60;;
25437;SDS011;13364;49.084;9.978;2023-07-08T00:30:46;7.22;;;5.65;;
25437;SDS011;13364;49.084;9.978;2023-07-08T00:33:15;10.00;;;6.47;;
25437;SDS011;13364;49.084;9.978;2023-07-08T00:35:43;7.78;;;5.55;;
25437;SDS011;13364;49.084;9.978;2023-07-08T00:38:15;7.78;;;5.57;;
25437;SDS011;13364;49.084;9.978;2023-07-08T00:44:21;11.13;;;5.80;;
25437;SDS011;13364;49.084;9.978;2023-07-08T00:46:50;7.03;;;5.40;;
25437;SDS011;13364;49.084;9.978;2023-07-08T00:49:36;9.55;;;5.70;;
25437;SDS011;13364;49.084;9.978;2023-07-08T00:52:44;7.13;;;5.40;;
25437;SDS011;13364;49.084;9.978;2023-07-08T00:55:05;9.77;;;6.22;;
25437;SDS011;13364;49.084;9.978;2023-07-08T00:57:36;9.98;;;5.72;;
25437;SDS011;13364;49.084;9.978;2023-07-08T01:00:11;12.20;;;6.00;;
25437;SDS011;13364;49.084;9.978;2023-07-08T01:02:45;8.40;;;5.90;;
25437;SDS011;13364;49.084;9.978;2023-07-08T01:05:17;8.13;;;5.85;;
25437;SDS011;13364;49.084;9.978;2023-07-08T01:07:53;9.73;;;5.80;;
25437;SDS011;13364;49.084;9.978;2023-07-08T01:10:26;8.82;;;5.30;;
25437;SDS011;13364;49.084;9.978;2023-07-08T01:12:56;8.50;;;5.53;;
25437;SDS011;13364;49.084;9.978;2023-07-08T01:18:54;8.80;;;5.95;;
25437;SDS011;13364;49.084;9.978;2023-07-08T01:21:32;8.85;;;5.82;;
25437;SDS011;13364;49.084;9.978;2023-07-08T01:24:06;10.25;;;5.88;;
25437;SDS011;13364;49.084;9.978;2023-07-08T01:26:38;8.82;;;5.63;;
25437;SDS011;13364;49.084;9.978;2023-07-08T01:29:08;9.23;;;6.53;;
25437;SDS011;13364;49.084;9.978;2023-07-08T01:31:36;10.00;;;5.72;;
25437;SDS011;13364;49.084;9.978;2023-07-08T01:37:02;10.40;;;5.60;;
25437;SDS011;13364;49.084;9.978;2023-07-08T01:39:32;8.77;;;5.72;;
25437;SDS011;13364;49.084;9.978;2023-07-08T01:41:59;10.55;;;5.95;;
25437;SDS011;13364;49.084;9.978;2023-07-08T01:44:32;7.43;;;5.30;;
25437;SDS011;13364;49.084;9.978;2023-07-08T01:47:08;9.90;;;6.13;;
25437;SDS011;13364;49.084;9.978;2023-07-08T01:49:37;7.07;;;5.30;;
25437;SDS011;13364;49.084;9.978;2023-07-08T01:52:06;8.23;;;5.93;;
25437;SDS011;13364;49.084;9.978;2023-07-08T01:54:34;9.20;;;5.75;;
25437;SDS011;13364;49.084;9.978;2023-07-08T01:57:01;7.47;;;5.53;;
25437;SDS011;13364;49.084;9.978;2023-07-08T01:59:29;7.28;;;5.55;;
25437;SDS011;13364;49.084;9.978;2023-07-08T02:01:56;10.27;;;5.68;;
25437;SDS011;13364;49.084;9.978;2023-07-08T02:04:25;8.90;;;5.93;;
25437;SDS011;13364;49.084;9.978;2023-07-08T02:06:57;9.55;;;5.60;;
25437;SDS011;13364;49.084;9.978;2023-07-08T02:09:26;7.93;;;5.28;;
25437;SDS011;13364;49.084;9.978;2023-07-08T02:11:54;8.10;;;5.82;;
25437;SDS011;13364;49.084;9.978;2023-07-08T02:14:22;8.00;;;5.43;;
25437;SDS011;13364;49.084;9.978;2023-07-08T02:16:49;8.95;;;5.40;;
25437;SDS011;13364;49.084;9.978;2023-07-08T02:19:16;6.68;;;5.00;;
25437;SDS011;13364;49.084;9.978;2023-07-08T02:21:43;7.43;;;5.32;;
25437;SDS011;13364;49.084;9.978;2023-07-08T02:24:10;6.95;;;4.63;;
25437;SDS011;13364;49.084;9.978;2023-07-08T02:26:37;8.30;;;5.90;;
25437;SDS011;13364;49.084;9.978;2023-07-08T02:29:06;7.70;;;5.22;;
25437;SDS011;13364;49.084;9.978;2023-07-08T02:31:33;10.20;;;5.43;;
25437;SDS011;13364;49.084;9.978;2023-07-08T02:34:00;7.65;;;5.50;;
25437;SDS011;13364;49.084;9.978;2023-07-08T02:36:30;9.00;;;6.00;;
25437;SDS011;13364;49.084;9.978;2023-07-08T02:38:57;7.18;;;5.40;;
25437;SDS011;13364;49.084;9.978;2023-07-08T02:41:24;7.07;;;5.15;;
25437;SDS011;13364;49.084;9.978;2023-07-08T02:43:51;7.65;;;5.80;;
25437;SDS011;13364;49.084;9.978;2023-07-08T02:46:18;7.45;;;5.45;;
25437;SDS011;13364;49.084;9.978;2023-07-08T02:48:46;8.95;;;5.43;;
25437;SDS011;13364;49.084;9.978;2023-07-08T02:51:13;9.93;;;5.72;;
25437;SDS011;13364;49.084;9.978;2023-07-08T02:53:40;11.98;;;5.82;;
25437;SDS011;13364;49.084;9.978;2023-07-08T02:56:07;8.90;;;5.50;;
25437;SDS011;13364;49.084;9.978;2023-07-08T02:58:34;8.13;;;5.63;;
25437;SDS011;13364;49.084;9.978;2023-07-08T03:01:02;8.07;;;5.53;;
25437;SDS011;13364;49.084;9.978;2023-07-08T03:03:30;9.20;;;5.55;;
25437;SDS011;13364;49.084;9.978;2023-07-08T03:05:58;9.05;;;5.85;;
25437;SDS011;13364;49.084;9.978;2023-07-08T03:08:29;12.02;;;6.18;;
25437;SDS011;13364;49.084;9.978;2023-07-08T03:10:58;9.05;;;5.70;;
25437;SDS011;13364;49.084;9.978;2023-07-08T03:13:27;8.15;;;6.03;;
25437;SDS011;13364;49.084;9.978;2023-07-08T03:15:55;9.30;;;5.38;;
25437;SDS011;13364;49.084;9.978;2023-07-08T03:18:23;8.15;;;5.80;;
25437;SDS011;13364;49.084;9.978;2023-07-08T03:20:53;7.60;;;5.40;;
25437;SDS011;13364;49.084;9.978;2023-07-08T03:23:23;8.48;;;5.50;;
25437;SDS011;13364;49.084;9.978;2023-07-08T03:25:52;9.77;;;6.00;;
25437;SDS011;13364;49.084;9.978;2023-07-08T03:28:21;7.60;;;5.25;;
25437;SDS011;13364;49.084;9.978;2023-07-08T03:30:51;7.07;;;5.10;;
25437;SDS011;13364;49.084;9.978;2023-07-08T03:33:19;7.38;;;5.70;;
25437;SDS011;13364;49.084;9.978;2023-07-08T03:35:46;8.48;;;5.32;;
25437;SDS011;13364;49.084;9.978;2023-07-08T03:38:15;7.68;;;4.75;;
25437;SDS011;13364;49.084;9.978;2023-07-08T03:40:42;7.70;;;5.63;;
25437;SDS011;13364;49.084;9.978;2023-07-08T03:43:10;7.65;;;5.20;;
25437;SDS011;13364;49.084;9.978;2023-07-08T03:45:38;9.05;;;5.60;;
25437;SDS011;13364;49.084;9.978;2023-07-08T03:51:44;11.55;;;5.97;;
25437;SDS011;13364;49.084;9.978;2023-07-08T03:54:12;10.10;;;5.47;;
25437;SDS011;13364;49.084;9.978;2023-07-08T03:56:40;6.93;;;5.20;;
25437;SDS011;13364;49.084;9.978;2023-07-08T03:59:08;9.93;;;5.93;;
25437;SDS011;13364;49.084;9.978;2023-07-08T04:01:36;7.00;;;4.95;;
25437;SDS011;13364;49.084;9.978;2023-07-08T04:04:13;8.15;;;5.88;;
25437;SDS011;13364;49.084;9.978;2023-07-08T04:06:43;6.95;;;5.25;;
25437;SDS011;13364;49.084;9.978;2023-07-08T04:09:12;7.72;;;5.28;;
25437;SDS011;13364;49.084;9.978;2023-07-08T04:11:39;10.05;;;5.10;;
25437;SDS011;13364;49.084;9.978;2023-07-08T04:14:07;9.35;;;5.50;;
25437;SDS011;13364;49.084;9.978;2023-07-08T04:16:43;7.95;;;4.93;;
25437;SDS011;13364;49.084;9.978;2023-07-08T04:19:12;6.93;;;5.22;;
25437;SDS011;13364;49.084;9.978;2023-07-08T04:21:41;8.25;;;5.28;;
25437;SDS011;13364;49.084;9.978;2023-07-08T04:24:13;9.43;;;5.10;;
25437;SDS011;13364;49.084;9.978;2023-07-08T04:26:41;8.25;;;5.28;;
25437;SDS011;13364;49.084;9.978;2023-07-08T04:29:10;7.50;;;5.13;;
25437;SDS011;13364;49.084;9.978;2023-07-08T04:31:38;7.78;;;5.00;;
25437;SDS011;13364;49.084;9.978;2023-07-08T04:34:05;7.68;;;5.63;;
25437;SDS011;13364;49.084;9.978;2023-07-08T04:36:32;8.85;;;5.45;;
25437;SDS011;13364;49.084;9.978;2023-07-08T04:39:01;8.93;;;5.47;;
25437;SDS011;13364;49.084;9.978;2023-07-08T04:41:30;9.82;;;5.15;;
25437;SDS011;13364;49.084;9.978;2023-07-08T04:43:57;7.40;;;5.18;;
25437;SDS011;13364;49.084;9.978;2023-07-08T04:49:04;8.05;;;5.60;;
25437;SDS011;13364;49.084;9.978;2023-07-08T04:51:32;8.10;;;5.17;;
25437;SDS011;13364;49.084;9.978;2023-07-08T04:54:00;7.13;;;5.30;;
25437;SDS011;13364;49.084;9.978;2023-07-08T04:56:40;9.15;;;5.40;;
25437;SDS011;13364;49.084;9.978;2023-07-08T04:59:08;10.40;;;5.47;;
25437;SDS011;13364;49.084;9.978;2023-07-08T05:01:37;7.07;;;4.95;;
25437;SDS011;13364;49.084;9.978;2023-07-08T05:04:04;9.05;;;5.40;;
25437;SDS011;13364;49.084;9.978;2023-07-08T05:06:32;8.43;;;5.00;;
25437;SDS011;13364;49.084;9.978;2023-07-08T05:09:00;9.43;;;5.38;;
25437;SDS011;13364;49.084;9.978;2023-07-08T05:11:29;9.67;;;5.73;;
25437;SDS011;13364;49.084;9.978;2023-07-08T05:13:56;7.40;;;5.35;;
25437;SDS011;13364;49.084;9.978;2023-07-08T05:16:24;8.43;;;5.03;;
25437;SDS011;13364;49.084;9.978;2023-07-08T05:18:51;7.85;;;4.93;;
25437;SDS011;13364;49.084;9.978;2023-07-08T05:25:36;6.88;;;4.93;;
25437;SDS011;13364;49.084;9.978;2023-07-08T05:28:04;6.70;;;5.32;;
25437;SDS011;13364;49.084;9.978;2023-07-08T05:30:31;8.07;;;5.35;;
25437;SDS011;13364;49.084;9.978;2023-07-08T05:32:58;7.80;;;5.10;;
25437;SDS011;13364;49.084;9.978;2023-07-08T05:35:25;9.85;;;6.13;;
25437;SDS011;13364;49.084;9.978;2023-07-08T05:37:52;7.75;;;5.68;;
25437;SDS011;13364;49.084;9.978;2023-07-08T05:40:19;7.82;;;5.45;;
25437;SDS011;13364;49.084;9.978;2023-07-08T05:42:46;7.40;;;5.30;;
25437;SDS011;13364;49.084;9.978;2023-07-08T05:45:14;6.25;;;5.07;;
25437;SDS011;13364;49.084;9.978;2023-07-08T05:52:06;7.55;;;5.30;;
25437;SDS011;13364;49.084;9.978;2023-07-08T05:54:37;8.50;;;5.60;;
25437;SDS011;13364;49.084;9.978;2023-07-08T05:57:05;7.75;;;5.40;;
25437;SDS011;13364;49.084;9.978;2023-07-08T05:59:34;7.07;;;5.60;;
25437;SDS011;13364;49.084;9.978;2023-07-08T06:02:02;11.10;;;5.85;;
25437;SDS011;13364;49.084;9.978;2023-07-08T06:04:30;7.43;;;5.22;;
25437;SDS011;13364;49.084;9.978;2023-07-08T06:06:57;7.93;;;5.68;;
25437;SDS011;13364;49.084;9.978;2023-07-08T06:09:24;7.00;;;5.05;;
25437;SDS011;13364;49.084;9.978;2023-07-08T06:11:51;10.15;;;5.43;;
25437;SDS011;13364;49.084;9.978;2023-07-08T06:14:19;6.60;;;5.50;;
25437;SDS011;13364;49.084;9.978;2023-07-08T06:16:46;9.45;;;5.88;;
25437;SDS011;13364;49.084;9.978;2023-07-08T06:19:13;7.40;;;5.68;;
25437;SDS011;13364;49.084;9.978;2023-07-08T06:21:41;8.07;;;5.75;;
25437;SDS011;13364;49.084;9.978;2023-07-08T06:24:08;8.25;;;5.50;;
25437;SDS011;13364;49.084;9.978;2023-07-08T06:26:35;7.70;;;4.82;;
25437;SDS011;13364;49.084;9.978;2023-07-08T06:29:03;8.82;;;5.68;;
25437;SDS011;13364;49.084;9.978;2023-07-08T06:31:30;8.02;;;5.68;;
25437;SDS011;13364;49.084;9.978;2023-07-08T06:33:57;7.10;;;5.70;;
25437;SDS011;13364;49.084;9.978;2023-07-08T06:36:25;5.95;;;5.13;;
25437;SDS011;13364;49.084;9.978;2023-07-08T06:38:52;9.57;;;5.82;;
25437;SDS011;13364;49.084;9.978;2023-07-08T06:41:19;11.18;;;5.45;;
25437;SDS011;13364;49.084;9.978;2023-07-08T06:43:46;8.88;;;5.68;;
25437;SDS011;13364;49.084;9.978;2023-07-08T06:46:16;8.07;;;5.60;;
25437;SDS011;13364;49.084;9.978;2023-07-08T06:48:45;11.45;;;5.70;;
25437;SDS011;13364;49.084;9.978;2023-07-08T06:51:13;8.27;;;5.65;;
25437;SDS011;13364;49.084;9.978;2023-07-08T06:53:40;8.43;;;6.10;;
25437;SDS011;13364;49.084;9.978;2023-07-08T06:56:07;9.13;;;5.63;;
25437;SDS011;13364;49.084;9.978;2023-07-08T06:58:34;7.50;;;6.00;;
25437;SDS011;13364;49.084;9.978;2023-07-08T07:01:07;8.43;;;5.60;;
25437;SDS011;13364;49.084;9.978;2023-07-08T07:03:34;8.63;;;5.80;;
25437;SDS011;13364;49.084;9.978;2023-07-08T07:06:01;10.02;;;5.80;;
25437;SDS011;13364;49.084;9.978;2023-07-08T07:08:29;9.68;;;6.15;;
25437;SDS011;13364;49.084;9.978;2023-07-08T07:10:56;7.97;;;5.22;;
25437;SDS011;13364;49.084;9.978;2023-07-08T07:13:23;7.18;;;5.20;;
25437;SDS011;13364;49.084;9.978;2023-07-08T07:15:50;8.45;;;5.75;;
25437;SDS011;13364;49.084;9.978;2023-07-08T07:18:18;7.78;;;5.50;;
25437;SDS011;13364;49.084;9.978;2023-07-08T07:20:49;9.90;;;5.97;;
25437;SDS011;13364;49.084;9.978;2023-07-08T07:23:17;9.85;;;6.10;;
25437;SDS011;13364;49.084;9.978;2023-07-08T07:25:45;7.80;;;5.35;;
25437;SDS011;13364;49.084;9.978;2023-07-08T07:28:14;8.30;;;5.90;;
25437;SDS011;13364;49.084;9.978;2023-07-08T07:30:46;8.30;;;6.03;;
25437;SDS011;13364;49.084;9.978;2023-07-08T07:33:14;7.68;;;5.32;;
25437;SDS011;13364;49.084;9.978;2023-07-08T07:35:41;10.60;;;6.18;;
25437;SDS011;13364;49.084;9.978;2023-07-08T07:38:09;7.95;;;5.57;;
25437;SDS011;13364;49.084;9.978;2023-07-08T07:40:36;7.38;;;5.35;;
25437;SDS011;13364;49.084;9.978;2023-07-08T07:45:33;9.15;;;5.68;;
25437;SDS011;13364;49.084;9.978;2023-07-08T07:48:00;7.43;;;5.63;;
25437;SDS011;13364;49.084;9.978;2023-07-08T07:50:28;8.18;;;6.05;;
25437;SDS011;13364;49.084;9.978;2023-07-08T07:52:56;7.88;;;6.22;;
25437;SDS011;13364;49.084;9.978;2023-07-08T07:55:23;7.85;;;5.78;;
25437;SDS011;13364;49.084;9.978;2023-07-08T07:57:51;7.68;;;6.28;;
25437;SDS011;13364;49.084;9.978;2023-07-08T08:03:17;7.63;;;6.33;;
25437;SDS011;13364;49.084;9.978;2023-07-08T08:05:47;8.30;;;6.10;;
25437;SDS011;13364;49.084;9.978;2023-07-08T08:08:15;9.25;;;5.68;;
25437;SDS011;13364;49.084;9.978;2023-07-08T08:10:43;9.73;;;6.07;;
25437;SDS011;13364;49.084;9.978;2023-07-08T08:13:10;9.68;;;6.28;;
25437;SDS011;13364;49.084;9.978;2023-07-08T08:15:38;10.27;;;6.65;;
25437;SDS011;13364;49.084;9.978;2023-07-08T08:18:06;9.18;;;6.53;;
25437;SDS011;13364;49.084;9.978;2023-07-08T08:20:33;8.23;;;6.82;;
25437;SDS011;13364;49.084;9.978;2023-07-08T08:23:00;9.60;;;6.47;;
25437;SDS011;13364;49.084;9.978;2023-07-08T08:25:27;10.77;;;7.13;;
25437;SDS011;13364;49.084;9.978;2023-07-08T08:27:54;8.75;;;5.75;;
25437;SDS011;13364;49.084;9.978;2023-07-08T08:30:21;8.73;;;5.97;;
25437;SDS011;13364;49.084;9.978;2023-07-08T08:32:49;9.73;;;6.15;;
25437;SDS011;13364;49.084;9.978;2023-07-08T08:35:16;10.93;;;6.53;;
25437;SDS011;13364;49.084;9.978;2023-07-08T08:37:43;8.35;;;5.90;;
25437;SDS011;13364;49.084;9.978;2023-07-08T08:40:15;7.78;;;5.95;;
25437;SDS011;13364;49.084;9.978;2023-07-08T08:45:20;8.75;;;6.43;;
25437;SDS011;13364;49.084;9.978;2023-07-08T08:47:49;11.88;;;6.78;;
25437;SDS011;13364;49.084;9.978;2023-07-08T08:53:19;8.23;;;5.88;;
25437;SDS011;13364;49.084;9.978;2023-07-08T08:55:54;7.72;;;5.97;;
25437;SDS011;13364;49.084;9.978;2023-07-08T08:58:50;8.95;;;6.72;;
25437;SDS011;13364;49.084;9.978;2023-07-08T09:01:27;11.10;;;6.55;;
25437;SDS011;13364;49.084;9.978;2023-07-08T09:03:59;12.00;;;7.53;;
25437;SDS011;13364;49.084;9.978;2023-07-08T09:06:31;8.93;;;6.65;;
25437;SDS011;13364;49.084;9.978;2023-07-08T09:09:04;9.20;;;7.03;;
25437;SDS011;13364;49.084;9.978;2023-07-08T09:14:32;8.23;;;6.53;;
25437;SDS011;13364;49.084;9.978;2023-07-08T09:19:56;8.35;;;6.18;;
25437;SDS011;13364;49.084;9.978;2023-07-08T09:23:00;9.80;;;6.63;;
25437;SDS011;13364;49.084;9.978;2023-07-08T09:26:13;9.55;;;6.43;;
25437;SDS011;13364;49.084;9.978;2023-07-08T09:28:45;8.77;;;6.65;;
25437;SDS011;13364;49.084;9.978;2023-07-08T09:31:21;10.00;;;6.68;;
25437;SDS011;13364;49.084;9.978;2023-07-08T09:34:05;8.55;;;6.10;;
25437;SDS011;13364;49.084;9.978;2023-07-08T09:36:38;7.88;;;6.18;;
25437;SDS011;13364;49.084;9.978;2023-07-08T09:39:14;10.63;;;7.22;;
25437;SDS011;13364;49.084;9.978;2023-07-08T09:41:44;12.57;;;5.70;;
25437;SDS011;13364;49.084;9.978;2023-07-08T09:44:23;8.15;;;5.72;;
25437;SDS011;13364;49.084;9.978;2023-07-08T09:46:56;10.02;;;5.90;;
25437;SDS011;13364;49.084;9.978;2023-07-08T09:49:27;10.77;;;6.03;;
25437;SDS011;13364;49.084;9.978;2023-07-08T09:51:58;8.70;;;5.70;;
25437;SDS011;13364;49.084;9.978;2023-07-08T09:54:26;7.85;;;5.93;;
25437;SDS011;13364;49.084;9.978;2023-07-08T09:56:58;9.88;;;5.93;;
25437;SDS011;13364;49.084;9.978;2023-07-08T09:59:32;7.85;;;4.95;;
25437;SDS011;13364;49.084;9.978;2023-07-08T10:02:15;8.80;;;5.47;;
25437;SDS011;13364;49.084;9.978;2023-07-08T10:05:10;8.07;;;5.63;;
25437;SDS011;13364;49.084;9.978;2023-07-08T10:07:46;6.80;;;4.75;;
25437;SDS011;13364;49.084;9.978;2023-07-08T10:10:19;9.05;;;5.25;;
25437;SDS011;13364;49.084;9.978;2023-07-08T10:13:04;6.45;;;4.85;;
25437;SDS011;13364;49.084;9.978;2023-07-08T10:15:39;7.88;;;5.28;;
25437;SDS011;13364;49.084;9.978;2023-07-08T10:18:12;8.60;;;5.10;;
25437;SDS011;13364;49.084;9.978;2023-07-08T10:23:47;8.13;;;4.47;;
25437;SDS011;13364;49.084;9.978;2023-07-08T10:26:28;8.45;;;4.50;;
25437;SDS011;13364;49.084;9.978;2023-07-08T10:34:54;5.85;;;4.53;;
25437;SDS011;13364;49.084;9.978;2023-07-08T10:37:42;5.60;;;4.40;;
25437;SDS011;13364;49.084;9.978;2023-07-08T10:51:02;5.80;;;3.92;;
25437;SDS011;13364;49.084;9.978;2023-07-08T10:56:48;5.03;;;3.80;;
25437;SDS011;13364;49.084;9.978;2023-07-08T11:10:10;6.32;;;3.60;;
25437;SDS011;13364;49.084;9.978;2023-07-08T11:12:51;6.25;;;3.70;;
25437;SDS011;13364;49.084;9.978;2023-07-08T11:15:44;6.15;;;3.60;;
25437;SDS011;13364;49.084;9.978;2023-07-08T11:20:59;7.03;;;4.20;;
25437;SDS011;13364;49.084;9.978;2023-07-08T11:23:47;5.25;;;4.10;;
25437;SDS011;13364;49.084;9.978;2023-07-08T11:26:28;6.25;;;3.92;;
25437;SDS011;13364;49.084;9.978;2023-07-08T11:28:57;7.25;;;3.88;;
25437;SDS011;13364;49.084;9.978;2023-07-08T11:31:25;5.75;;;3.60;;
25437;SDS011;13364;49.084;9.978;2023-07-08T11:33:55;6.38;;;3.85;;
25437;SDS011;13364;49.084;9.978;2023-07-08T11:36:24;6.47;;;4.13;;
25437;SDS011;13364;49.084;9.978;2023-07-08T11:38:52;8.75;;;4.15;;
25437;SDS011;13364;49.084;9.978;2023-07-08T11:41:22;7.03;;;4.03;;
25437;SDS011;13364;49.084;9.978;2023-07-08T11:43:52;8.82;;;4.35;;
25437;SDS011;13364;49.084;9.978;2023-07-08T11:46:29;6.40;;;4.38;;
25437;SDS011;13364;49.084;9.978;2023-07-08T11:49:05;6.97;;;4.38;;
25437;SDS011;13364;49.084;9.978;2023-07-08T11:51:38;4.75;;;3.75;;
25437;SDS011;13364;49.084;9.978;2023-07-08T11:59:42;7.70;;;3.90;;
25437;SDS011;13364;49.084;9.978;2023-07-08T12:02:11;6.07;;;4.25;;
25437;SDS011;13364;49.084;9.978;2023-07-08T12:10:30;6.47;;;4.15;;
25437;SDS011;13364;49.084;9.978;2023-07-08T12:13:03;7.28;;;4.03;;
25437;SDS011;13364;49.084;9.978;2023-07-08T12:15:36;10.25;;;4.40;;
25437;SDS011;13364;49.084;9.978;2023-07-08T12:20:54;5.70;;;3.67;;
25437;SDS011;13364;49.084;9.978;2023-07-08T12:23:25;7.68;;;4.00;;
25437;SDS011;13364;49.084;9.978;2023-07-08T12:25:54;4.63;;;3.15;;
25437;SDS011;13364;49.084;9.978;2023-07-08T12:28:22;6.40;;;4.10;;
25437;SDS011;13364;49.084;9.978;2023-07-08T12:30:51;8.23;;;3.53;;
25437;SDS011;13364;49.084;9.978;2023-07-08T12:33:25;6.75;;;3.33;;
25437;SDS011;13364;49.084;9.978;2023-07-08T12:35:56;5.10;;;3.45;;
25437;SDS011;13364;49.084;9.978;2023-07-08T12:41:25;7.15;;;4.20;;
25437;SDS011;13364;49.084;9.978;2023-07-08T12:43:57;7.22;;;4.03;;
25437;SDS011;13364;49.084;9.978;2023-07-08T12:46:25;6.25;;;3.95;;
25437;SDS011;13364;49.084;9.978;2023-07-08T12:48:53;5.03;;;3.97;;
25437;SDS011;13364;49.084;9.978;2023-07-08T12:51:23;6.25;;;4.07;;
25437;SDS011;13364;49.084;9.978;2023-07-08T12:53:53;6.53;;;4.07;;
25437;SDS011;13364;49.084;9.978;2023-07-08T12:56:21;5.70;;;3.58;;
25437;SDS011;13364;49.084;9.978;2023-07-08T12:58:50;7.65;;;3.97;;
25437;SDS011;13364;49.084;9.978;2023-07-08T13:01:20;6.40;;;3.78;;
25437;SDS011;13364;49.084;9.978;2023-07-08T13:03:52;5.68;;;4.25;;
25437;SDS011;13364;49.084;9.978;2023-07-08T13:06:27;7.18;;;4.72;;
25437;SDS011;13364;49.084;9.978;2023-07-08T13:09:00;6.80;;;4.18;;
25437;SDS011;13364;49.084;9.978;2023-07-08T13:11:35;6.15;;;4.70;;
25437;SDS011;13364;49.084;9.978;2023-07-08T13:14:04;7.18;;;4.50;;
25437;SDS011;13364;49.084;9.978;2023-07-08T13:16:34;6.63;;;4.18;;
25437;SDS011;13364;49.084;9.978;2023-07-08T13:19:02;5.20;;;3.88;;
25437;SDS011;13364;49.084;9.978;2023-07-08T13:21:29;7.13;;;4.05;;
25437;SDS011;13364;49.084;9.978;2023-07-08T13:23:58;5.97;;;4.40;;
25437;SDS011;13364;49.084;9.978;2023-07-08T13:26:26;4.75;;;3.80;;
25437;SDS011;13364;49.084;9.978;2023-07-08T13:29:13;5.25;;;3.92;;
25437;SDS011;13364;49.084;9.978;2023-07-08T13:31:44;7.85;;;4.90;;
25437;SDS011;13364;49.084;9.978;2023-07-08T13:34:19;7.10;;;3.80;;
25437;SDS011;13364;49.084;9.978;2023-07-08T13:36:50;6.20;;;4.35;;
25437;SDS011;13364;49.084;9.978;2023-07-08T13:39:26;6.25;;;3.80;;
25437;SDS011;13364;49.084;9.978;2023-07-08T13:41:57;5.38;;;4.10;;
25437;SDS011;13364;49.084;9.978;2023-07-08T13:44:24;10.13;;;4.45;;
25437;SDS011;13364;49.084;9.978;2023-07-08T13:46:53;5.13;;;3.78;;
25437;SDS011;13364;49.084;9.978;2023-07-08T13:49:29;8.55;;;4.45;;
25437;SDS011;13364;49.084;9.978;2023-07-08T13:54:41;8.43;;;4.25;;
25437;SDS011;13364;49.084;9.978;2023-07-08T13:57:11;9.25;;;5.18;;
25437;SDS011;13364;49.084;9.978;2023-07-08T13:59:42;7.55;;;4.47;;
25437;SDS011;13364;49.084;9.978;2023-07-08T14:02:19;6.35;;;4.25;;
25437;SDS011;13364;49.084;9.978;2023-07-08T14:04:52;6.38;;;4.50;;
25437;SDS011;13364;49.084;9.978;2023-07-08T14:07:21;7.45;;;4.65;;
25437;SDS011;13364;49.084;9.978;2023-07-08T14:09:51;7.45;;;4.40;;
25437;SDS011;13364;49.084;9.978;2023-07-08T14:12:19;9.02;;;4.15;;
25437;SDS011;13364;49.084;9.978;2023-07-08T14:14:49;6.60;;;4.15;;
25437;SDS011;13364;49.084;9.978;2023-07-08T14:17:24;6.07;;;4.63;;
25437;SDS011;13364;49.084;9.978;2023-07-08T14:19:52;7.30;;;4.28;;
25437;SDS011;13364;49.084;9.978;2023-07-08T14:24:47;7.25;;;4.13;;
25437;SDS011;13364;49.084;9.978;2023-07-08T14:27:14;6.32;;;4.65;;
25437;SDS011;13364;49.084;9.978;2023-07-08T14:32:28;8.57;;;4.53;;
25437;SDS011;13364;49.084;9.978;2023-07-08T14:35:12;8.55;;;5.25;;
25437;SDS011;13364;49.084;9.978;2023-07-08T14:37:43;8.88;;;5.15;;
25437;SDS011;13364;49.084;9.978;2023-07-08T14:42:59;9.15;;;4.45;;
25437;SDS011;13364;49.084;9.978;2023-07-08T14:45:29;6.88;;;4.25;;
25437;SDS011;13364;49.084;9.978;2023-07-08T14:47:58;6.38;;;4.32;;
25437;SDS011;13364;49.084;9.978;2023-07-08T14:50:25;5.47;;;4.20;;
25437;SDS011;13364;49.084;9.978;2023-07-08T14:52:55;5.93;;;4.18;;
25437;SDS011;13364;49.084;9.978;2023-07-08T14:55:23;8.45;;;4.60;;
25437;SDS011;13364;49.084;9.978;2023-07-08T14:57:50;6.25;;;4.70;;
25437;SDS011;13364;49.084;9.978;2023-07-08T15:00:18;6.05;;;4.88;;
25437;SDS011;13364;49.084;9.978;2023-07-08T15:02:46;6.35;;;4.25;;
25437;SDS011;13364;49.084;9.978;2023-07-08T15:07:50;6.10;;;4.22;;
25437;SDS011;13364;49.084;9.978;2023-07-08T15:10:18;7.47;;;4.50;;
25437;SDS011;13364;49.084;9.978;2023-07-08T15:12:47;5.82;;;4.20;;
25437;SDS011;13364;49.084;9.978;2023-07-08T15:15:16;7.68;;;4.53;;
25437;SDS011;13364;49.084;9.978;2023-07-08T15:17:48;6.30;;;4.38;;
25437;SDS011;13364;49.084;9.978;2023-07-08T15:20:15;4.95;;;4.00;;
25437;SDS011;13364;49.084;9.978;2023-07-08T15:22:43;8.35;;;4.63;;
25437;SDS011;13364;49.084;9.978;2023-07-08T15:25:11;9.50;;;4.95;;
25437;SDS011;13364;49.084;9.978;2023-07-08T15:27:40;7.53;;;4.57;;
25437;SDS011;13364;49.084;9.978;2023-07-08T15:30:17;7.10;;;4.30;;
25437;SDS011;13364;49.084;9.978;2023-07-08T15:32:47;6.20;;;4.80;;
25437;SDS011;13364;49.084;9.978;2023-07-08T15:35:18;9.60;;;5.28;;
25437;SDS011;13364;49.084;9.978;2023-07-08T15:37:47;7.65;;;4.72;;
25437;SDS011;13364;49.084;9.978;2023-07-08T15:40:15;5.80;;;4.45;;
25437;SDS011;13364;49.084;9.978;2023-07-08T15:42:45;6.65;;;4.57;;
25437;SDS011;13364;49.084;9.978;2023-07-08T15:48:01;7.10;;;4.43;;
25437;SDS011;13364;49.084;9.978;2023-07-08T15:50:28;9.85;;;4.95;;
25437;SDS011;13364;49.084;9.978;2023-07-08T15:52:55;9.60;;;5.32;;
25437;SDS011;13364;49.084;9.978;2023-07-08T15:55:33;6.22;;;4.60;;
25437;SDS011;13364;49.084;9.978;2023-07-08T15:58:06;6.68;;;3.97;;
25437;SDS011;13364;49.084;9.978;2023-07-08T16:00:45;8.70;;;4.63;;
25437;SDS011;13364;49.084;9.978;2023-07-08T16:03:15;6.15;;;4.95;;
25437;SDS011;13364;49.084;9.978;2023-07-08T16:05:51;5.88;;;4.10;;
25437;SDS011;13364;49.084;9.978;2023-07-08T16:08:18;6.90;;;4.80;;
25437;SDS011;13364;49.084;9.978;2023-07-08T16:10:48;8.60;;;5.22;;
25437;SDS011;13364;49.084;9.978;2023-07-08T16:13:26;7.00;;;4.60;;
25437;SDS011;13364;49.084;9.978;2023-07-08T16:15:55;8.07;;;4.50;;
25437;SDS011;13364;49.084;9.978;2023-07-08T16:18:22;6.22;;;4.13;;
25437;SDS011;13364;49.084;9.978;2023-07-08T16:20:49;6.20;;;3.97;;
25437;SDS011;13364;49.084;9.978;2023-07-08T16:23:16;8.45;;;4.97;;
25437;SDS011;13364;49.084;9.978;2023-07-08T16:25:45;5.85;;;3.60;;
25437;SDS011;13364;49.084;9.978;2023-07-08T16:28:35;5.40;;;3.60;;
25437;SDS011;13364;49.084;9.978;2023-07-08T16:31:10;5.50;;;3.88;;
25437;SDS011;13364;49.084;9.978;2023-07-08T16:33:46;6.82;;;4.15;;
25437;SDS011;13364;49.084;9.978;2023-07-08T16:36:15;6.18;;;4.53;;
25437;SDS011;13364;49.084;9.978;2023-07-08T16:38:50;4.90;;;3.45;;
25437;SDS011;13364;49.084;9.978;2023-07-08T16:41:18;8.52;;;4.63;;
25437;SDS011;13364;49.084;9.978;2023-07-08T16:43:47;4.63;;;3.55;;
25437;SDS011;13364;49.084;9.978;2023-07-08T16:46:16;7.28;;;4.13;;
25437;SDS011;13364;49.084;9.978;2023-07-08T16:48:44;4.57;;;3.40;;
25437;SDS011;13364;49.084;9.978;2023-07-08T16:53:43;5.18;;;3.55;;
25437;SDS011;13364;49.084;9.978;2023-07-08T16:59:38;4.93;;;3.83;;
25437;SDS011;13364;49.084;9.978;2023-07-08T17:02:12;5.57;;;4.20;;